createdAt,value
2022-11-17T00:01:37.654Z,7.95
2022-11-17T00:06:39.473Z,9.07
2022-11-17T00:11:59.568Z,9.65
2022-11-17T00:17:02.007Z,10.90
2022-11-17T00:22:03.793Z,10.43
2022-11-17T00:27:05.785Z,8.48
2022-11-17T00:32:33.525Z,9.23
2022-11-17T00:37:38.096Z,9.02
2022-11-17T00:42:39.683Z,9.73
2022-11-17T00:47:43.040Z,10.60
2022-11-17T00:52:44.664Z,10.68
2022-11-17T00:57:46.258Z,9.90
2022-11-17T01:02:48.044Z,12.52
2022-11-17T01:07:49.810Z,9.20
2022-11-17T01:12:51.413Z,8.48
2022-11-17T01:17:53.063Z,9.82
2022-11-17T01:22:55.053Z,9.10
2022-11-17T01:27:56.608Z,14.43
2022-11-17T01:32:58.161Z,10.95
2022-11-17T01:37:59.848Z,10.25
2022-11-17T01:43:01.561Z,8.55
2022-11-17T01:48:06.845Z,8.40
2022-11-17T01:53:15.334Z,11.82
2022-11-17T01:58:33.497Z,13.48
2022-11-17T02:03:37.126Z,14.15
2022-11-17T02:08:41.155Z,9.13
2022-11-17T02:13:42.792Z,10.32
2022-11-17T02:18:46.798Z,11.82
2022-11-17T02:24:12.955Z,11.90
2022-11-17T02:29:44.752Z,7.60
2022-11-17T02:34:46.533Z,9.52
2022-11-17T02:40:10.644Z,8.40
2022-11-17T02:45:19.461Z,9.38
2022-11-17T02:50:28.031Z,8.15
2022-11-17T03:00:37.936Z,8.20
2022-11-17T03:05:48.605Z,8.15
2022-11-17T03:10:58.608Z,8.55
2022-11-17T03:16:08.356Z,8.30
2022-11-17T03:21:19.886Z,8.45
2022-11-17T03:26:32.032Z,9.00
2022-11-17T03:31:35.209Z,8.45
2022-11-17T03:36:40.110Z,9.30
2022-11-17T03:41:46.032Z,8.70
2022-11-17T03:46:49.524Z,7.55
2022-11-17T03:51:51.548Z,6.93
2022-11-17T03:57:01.468Z,9.30
2022-11-17T04:02:03.229Z,8.43
2022-11-17T04:07:04.872Z,8.55
2022-11-17T04:12:26.123Z,10.85
2022-11-17T04:17:27.676Z,10.57
2022-11-17T04:22:29.251Z,11.82
2022-11-17T04:27:49.530Z,10.60
2022-11-17T04:32:51.095Z,10.38
2022-11-17T04:37:52.637Z,9.35
2022-11-17T04:42:54.192Z,11.85
2022-11-17T04:47:56.025Z,11.20
2022-11-17T04:52:57.828Z,10.38
2022-11-17T04:57:59.406Z,10.80
2022-11-17T05:03:00.988Z,10.23
2022-11-17T05:08:02.566Z,11.73
2022-11-17T05:13:22.344Z,12.07
2022-11-17T05:18:23.908Z,10.48
2022-11-17T05:23:44.076Z,13.30
2022-11-17T05:28:46.141Z,12.35
2022-11-17T05:33:48.069Z,11.65
2022-11-17T05:38:50.464Z,11.43
2022-11-17T05:43:52.597Z,12.23
2022-11-17T05:48:54.844Z,12.95
2022-11-17T05:53:56.426Z,9.65
2022-11-17T05:59:07.129Z,8.77
2022-11-17T06:04:08.902Z,10.77
2022-11-17T06:09:10.633Z,9.82
2022-11-17T06:14:12.462Z,12.35
2022-11-17T06:19:20.870Z,12.15
2022-11-17T06:24:23.300Z,13.13
2022-11-17T06:29:26.102Z,13.90
2022-11-17T06:34:28.855Z,16.00
2022-11-17T06:39:30.508Z,15.48
2022-11-17T06:44:32.045Z,15.18
2022-11-17T06:49:33.631Z,21.20
2022-11-17T06:54:35.221Z,23.88
2022-11-17T06:59:37.329Z,25.30
2022-11-17T07:04:39.466Z,37.55
2022-11-17T07:09:41.111Z,23.65
2022-11-17T07:14:42.731Z,14.63
2022-11-17T07:19:44.533Z,16.83
2022-11-17T07:24:46.363Z,13.07
2022-11-17T07:29:48.131Z,13.50
2022-11-17T07:34:49.989Z,12.27
2022-11-17T07:39:51.658Z,13.88
2022-11-17T07:44:53.719Z,23.75
2022-11-17T07:49:55.399Z,16.42
2022-11-17T07:54:56.998Z,15.98
2022-11-17T07:59:58.570Z,17.88
2022-11-17T08:05:00.170Z,19.48
2022-11-17T08:10:01.982Z,14.63
2022-11-17T08:15:03.882Z,15.52
2022-11-17T08:20:05.866Z,16.38
2022-11-17T08:25:08.070Z,17.90
2022-11-17T08:30:10.290Z,20.92
2022-11-17T08:35:11.942Z,20.70
2022-11-17T08:40:14.598Z,28.88
2022-11-17T08:45:16.325Z,30.33
2022-11-17T08:50:18.327Z,30.65
2022-11-17T08:55:20.165Z,29.88
2022-11-17T09:00:22.178Z,26.67
2022-11-17T09:05:25.080Z,26.63
2022-11-17T09:10:26.709Z,26.83
2022-11-17T09:15:28.385Z,21.10
2022-11-17T09:20:31.869Z,45.30
2022-11-17T09:25:33.453Z,22.95
2022-11-17T09:30:36.295Z,39.35
2022-11-17T09:35:37.924Z,38.28
2022-11-17T09:40:41.604Z,35.97
2022-11-17T09:45:46.218Z,40.75
2022-11-17T09:50:49.542Z,34.63
2022-11-17T09:55:56.149Z,38.65
2022-11-17T10:00:57.872Z,34.05
2022-11-17T10:06:03.575Z,36.20
2022-11-17T10:11:31.608Z,29.00
2022-11-17T10:16:34.363Z,32.65
2022-11-17T10:21:37.949Z,26.15
2022-11-17T10:26:47.890Z,27.05
2022-11-17T10:31:49.930Z,28.85
2022-11-17T10:36:51.830Z,19.45
2022-11-17T10:41:54.331Z,26.38
2022-11-17T10:47:04.633Z,21.25
2022-11-17T10:52:15.741Z,21.05
2022-11-17T10:57:22.436Z,18.95
2022-11-17T11:02:34.440Z,21.05
2022-11-17T11:07:36.885Z,20.45
2022-11-17T11:13:01.980Z,20.00
2022-11-17T11:18:14.849Z,16.95
2022-11-17T11:23:43.875Z,19.65
2022-11-17T11:29:13.411Z,17.47
2022-11-17T11:34:40.969Z,17.45
2022-11-17T11:39:42.562Z,15.27
2022-11-17T11:45:03.018Z,16.25
2022-11-17T11:50:26.064Z,15.25
2022-11-17T11:55:34.974Z,15.43
2022-11-17T12:00:38.541Z,15.73
2022-11-17T12:05:48.558Z,15.23
2022-11-17T12:11:29.078Z,16.88
2022-11-17T12:16:36.227Z,18.75
2022-11-17T12:21:38.534Z,15.25
2022-11-17T12:26:40.188Z,15.10
2022-11-17T12:31:46.740Z,13.32
2022-11-17T12:37:16.861Z,11.38
2022-11-17T12:42:18.488Z,9.40
2022-11-17T12:47:25.401Z,6.15
2022-11-17T12:52:47.974Z,6.78
2022-11-17T12:57:58.008Z,6.82
2022-11-17T13:03:11.771Z,8.68
2022-11-17T13:08:13.297Z,10.63
2022-11-17T13:13:23.889Z,5.70
2022-11-17T13:18:38.193Z,5.20
2022-11-17T13:23:44.327Z,8.13
2022-11-17T13:28:46.563Z,6.15
2022-11-17T13:34:10.722Z,6.53
2022-11-17T13:39:17.006Z,6.45
2022-11-17T13:44:24.158Z,5.95
2022-11-17T13:49:38.446Z,6.70
2022-11-17T13:54:44.806Z,7.10
2022-11-17T13:59:46.915Z,8.70
2022-11-17T14:05:18.665Z,10.82
2022-11-17T14:10:20.428Z,80.78
2022-11-17T14:15:24.902Z,20.23
2022-11-17T14:20:35.872Z,17.48
2022-11-17T14:25:51.264Z,10.48
2022-11-17T14:30:57.391Z,10.18
2022-11-17T14:35:59.998Z,7.35
2022-11-17T14:41:01.624Z,8.73
2022-11-17T14:46:03.750Z,10.63
2022-11-17T14:51:05.645Z,9.05
2022-11-17T14:56:08.894Z,9.77
2022-11-17T15:01:13.730Z,6.88
2022-11-17T15:06:20.000Z,8.57
2022-11-17T15:11:23.662Z,8.43
2022-11-17T15:16:25.296Z,8.60
2022-11-17T15:21:26.919Z,7.95
2022-11-17T15:26:28.522Z,8.02
2022-11-17T15:31:30.249Z,7.55
2022-11-17T15:36:32.194Z,10.77
2022-11-17T15:41:33.822Z,10.38
2022-11-17T15:46:35.717Z,9.43
2022-11-17T15:51:37.525Z,11.38
2022-11-17T15:56:39.172Z,10.57
2022-11-17T16:01:41.113Z,10.55
2022-11-17T16:06:45.429Z,9.75
2022-11-17T16:11:47.135Z,12.30
2022-11-17T16:16:48.949Z,10.50
2022-11-17T16:21:51.189Z,12.48
2022-11-17T16:26:52.873Z,11.43
2022-11-17T16:31:55.323Z,12.93
2022-11-17T16:36:56.971Z,11.50
2022-11-17T16:42:00.187Z,11.93
2022-11-17T16:47:01.834Z,12.50
2022-11-17T16:52:03.688Z,10.73
2022-11-17T16:57:05.374Z,14.82
2022-11-17T17:02:06.950Z,12.85
2022-11-17T17:07:08.602Z,20.20
2022-11-17T17:12:10.324Z,17.45
2022-11-17T17:17:11.917Z,19.60
2022-11-17T17:22:13.531Z,28.92
2022-11-17T17:27:15.300Z,24.45
2022-11-17T17:32:16.933Z,34.42
2022-11-17T17:37:18.698Z,21.25
2022-11-17T17:42:20.494Z,54.22
2022-11-17T17:47:22.089Z,47.40
2022-11-17T17:52:23.681Z,21.50
2022-11-17T17:57:28.676Z,24.42
2022-11-17T18:02:33.907Z,17.17
2022-11-17T18:07:35.539Z,13.82
2022-11-17T18:12:37.461Z,15.88
2022-11-17T18:17:40.568Z,12.73
2022-11-17T18:22:42.438Z,14.35
2022-11-17T18:27:44.049Z,26.98
2022-11-17T18:32:45.677Z,28.33
2022-11-17T18:37:47.445Z,20.15
2022-11-17T18:42:49.291Z,16.80
2022-11-17T18:47:50.955Z,14.98
2022-11-17T18:52:52.595Z,22.98
2022-11-17T18:57:54.386Z,19.92
2022-11-17T19:02:56.006Z,17.35
2022-11-17T19:07:57.806Z,14.50
2022-11-17T19:12:59.390Z,19.50
2022-11-17T19:18:01.009Z,21.92
2022-11-17T19:23:02.625Z,22.73
2022-11-17T19:28:04.559Z,25.23
2022-11-17T19:33:06.174Z,27.08
2022-11-17T19:38:07.988Z,21.25
2022-11-17T19:43:09.601Z,30.40
2022-11-17T19:48:11.196Z,29.45
2022-11-17T19:53:12.781Z,33.33
2022-11-17T19:58:18.288Z,28.08
2022-11-17T20:03:21.218Z,29.00
2022-11-17T20:08:22.846Z,29.70
2022-11-17T20:13:24.454Z,34.90
2022-11-17T20:18:26.234Z,42.38
2022-11-17T20:23:27.833Z,37.17
2022-11-17T20:28:32.082Z,29.20
2022-11-17T20:33:34.403Z,32.92
2022-11-17T20:38:36.191Z,26.27
2022-11-17T20:43:37.927Z,20.58
2022-11-17T20:48:39.567Z,19.42
2022-11-17T20:53:41.390Z,27.13
2022-11-17T20:58:43.296Z,24.90
2022-11-17T21:03:45.460Z,26.70
2022-11-17T21:08:47.146Z,25.17
2022-11-17T21:13:48.737Z,31.27
2022-11-17T21:18:50.387Z,24.80
2022-11-17T21:23:55.815Z,28.13
2022-11-17T21:29:03.226Z,26.20
2022-11-17T21:34:12.599Z,27.05
2022-11-17T21:39:18.626Z,30.33
2022-11-17T21:44:20.859Z,30.40
2022-11-17T21:49:22.499Z,29.02
2022-11-17T21:54:24.309Z,25.85
2022-11-17T21:59:25.939Z,27.17
2022-11-17T22:04:27.558Z,28.02
2022-11-17T22:09:29.418Z,27.58
2022-11-17T22:14:31.603Z,25.50
2022-11-17T22:19:33.815Z,54.15
2022-11-17T22:24:37.767Z,34.53
2022-11-17T22:29:41.482Z,125.70
2022-11-17T22:34:43.678Z,36.55
2022-11-17T22:39:45.658Z,24.90
2022-11-17T22:44:47.321Z,24.65
2022-11-17T22:49:49.293Z,57.08
2022-11-17T22:54:50.929Z,48.15
2022-11-17T22:59:52.796Z,28.35
2022-11-17T23:04:54.457Z,24.02
2022-11-17T23:09:56.371Z,48.80
2022-11-17T23:14:58.426Z,27.98
2022-11-17T23:20:00.208Z,42.78
2022-11-17T23:25:02.339Z,55.17
2022-11-17T23:30:04.311Z,30.15
2022-11-17T23:35:06.601Z,22.27
2022-11-17T23:40:09.050Z,22.08
2022-11-17T23:45:12.164Z,26.10
2022-11-17T23:50:13.810Z,21.15
2022-11-17T23:55:15.490Z,21.30
